createdAt,value
2017-08-24T00:00:54.367Z,0
2017-08-24T00:01:54.926Z,0
2017-08-24T00:02:55.074Z,0
2017-08-24T00:03:54.576Z,0
2017-08-24T00:04:54.927Z,0
2017-08-24T00:05:54.286Z,0
2017-08-24T00:06:54.563Z,0
2017-08-24T00:07:54.844Z,0
2017-08-24T00:08:54.830Z,0
2017-08-24T00:09:54.822Z,0
2017-08-24T00:10:54.192Z,0
2017-08-24T00:11:54.471Z,0
2017-08-24T00:12:54.843Z,0
2017-08-24T00:13:54.864Z,0
2017-08-24T00:14:54.355Z,0
2017-08-24T00:15:54.830Z,0
2017-08-24T00:16:54.708Z,0
2017-08-24T00:17:54.791Z,0
2017-08-24T00:18:54.694Z,0
2017-08-24T00:19:54.060Z,0
2017-08-24T00:20:54.672Z,0
2017-08-24T00:21:54.068Z,0
2017-08-24T00:22:54.321Z,0
2017-08-24T00:23:54.311Z,0
2017-08-24T00:24:54.034Z,0
2017-08-24T00:25:53.655Z,0
2017-08-24T00:26:54.603Z,0
2017-08-24T00:27:54.574Z,0
2017-08-24T00:28:54.241Z,0
2017-08-24T00:29:53.933Z,0
2017-08-24T00:30:54.022Z,0
2017-08-24T00:31:54.222Z,0
2017-08-24T00:32:53.880Z,0
2017-08-24T00:33:54.550Z,0
2017-08-24T00:34:54.170Z,0
2017-08-24T00:35:54.462Z,0
2017-08-24T00:36:54.453Z,0
2017-08-24T00:37:54.121Z,0
2017-08-24T00:38:54.090Z,0
2017-08-24T00:39:54.392Z,0
2017-08-24T00:40:53.784Z,0
2017-08-24T00:41:54.130Z,0
2017-08-24T00:42:54.040Z,0
2017-08-24T00:43:54.138Z,0
2017-08-24T00:44:54.335Z,0
2017-08-24T00:45:54.311Z,0
2017-08-24T00:46:53.596Z,0
2017-08-24T00:47:54.281Z,0
2017-08-24T00:48:53.975Z,0
2017-08-24T00:49:53.975Z,0
2017-08-24T00:50:54.240Z,0
2017-08-24T00:51:54.242Z,0
2017-08-24T00:52:53.626Z,0
2017-08-24T00:53:54.208Z,0
2017-08-24T00:54:54.410Z,0
2017-08-24T00:55:53.919Z,0
2017-08-24T00:56:53.857Z,0
2017-08-24T00:57:54.161Z,0
2017-08-24T00:58:54.170Z,0
2017-08-24T00:59:54.134Z,0
2017-08-24T01:00:53.536Z,0
2017-08-24T01:01:53.177Z,0
2017-08-24T01:02:53.513Z,0
2017-08-24T01:03:53.793Z,0
2017-08-24T01:04:53.765Z,0
2017-08-24T01:05:54.049Z,0
2017-08-24T01:06:54.039Z,0
2017-08-24T01:07:53.516Z,0
2017-08-24T01:08:53.693Z,0
2017-08-24T01:09:54.111Z,0
2017-08-24T01:10:53.381Z,0
2017-08-24T01:11:53.730Z,0
2017-08-24T01:12:54.151Z,0
2017-08-24T01:13:53.654Z,0
2017-08-24T01:14:53.950Z,0
2017-08-24T01:15:53.030Z,0
2017-08-24T01:16:53.992Z,0
2017-08-24T01:17:53.604Z,0
2017-08-24T01:18:53.260Z,0
2017-08-24T01:19:53.240Z,0
2017-08-24T01:20:53.884Z,0
2017-08-24T01:21:53.287Z,0
2017-08-24T01:22:53.499Z,0
2017-08-24T01:23:53.511Z,0
2017-08-24T01:24:53.895Z,0
2017-08-24T01:25:53.189Z,0
2017-08-24T01:26:53.773Z,0
2017-08-24T01:27:53.153Z,0
2017-08-24T01:28:53.740Z,0
2017-08-24T01:29:53.416Z,0
2017-08-24T01:30:53.724Z,0
2017-08-24T01:31:53.431Z,0
2017-08-24T01:32:52.762Z,0
2017-08-24T01:33:53.381Z,0
2017-08-24T01:34:53.686Z,0
2017-08-24T01:35:53.329Z,0
2017-08-24T01:36:53.630Z,0
2017-08-24T01:37:52.999Z,0
2017-08-24T01:38:53.290Z,0
2017-08-24T01:39:53.587Z,0
2017-08-24T01:40:53.811Z,0
2017-08-24T01:41:53.266Z,0
2017-08-24T01:42:52.952Z,0
2017-08-24T01:43:52.915Z,0
2017-08-24T01:44:53.220Z,0
2017-08-24T01:45:53.184Z,0
2017-08-24T01:46:52.998Z,0
2017-08-24T01:47:52.859Z,0
2017-08-24T01:48:52.847Z,0
2017-08-24T01:49:52.831Z,0
2017-08-24T01:50:53.153Z,0
2017-08-24T01:51:53.458Z,0
2017-08-24T01:52:52.803Z,0
2017-08-24T01:53:52.790Z,0
2017-08-24T01:54:52.771Z,0
2017-08-24T01:55:53.060Z,0
2017-08-24T01:56:53.399Z,0
2017-08-24T01:57:53.020Z,0
2017-08-24T01:58:52.721Z,0
2017-08-24T01:59:52.701Z,0
2017-08-24T02:00:53.001Z,0
2017-08-24T02:01:52.982Z,0
2017-08-24T02:02:52.962Z,0
2017-08-24T02:03:52.340Z,0
2017-08-24T02:04:53.029Z,0
2017-08-24T02:05:52.623Z,0
2017-08-24T02:06:52.632Z,0
2017-08-24T02:07:52.601Z,0
2017-08-24T02:08:52.590Z,0
2017-08-24T02:09:52.872Z,0
2017-08-24T02:10:52.861Z,0
2017-08-24T02:11:52.851Z,0
2017-08-24T02:12:52.842Z,0
2017-08-24T02:13:53.140Z,0
2017-08-24T02:14:53.126Z,0
2017-08-24T02:15:53.111Z,0
2017-08-24T02:16:52.588Z,0
2017-08-24T02:17:52.781Z,0
2017-08-24T02:18:52.762Z,0
2017-08-24T02:19:53.051Z,0
2017-08-24T02:20:52.728Z,0
2017-08-24T02:21:52.752Z,0
2017-08-24T02:22:52.712Z,0
2017-08-24T02:23:53.010Z,0
2017-08-24T02:24:52.658Z,0
2017-08-24T02:25:52.684Z,0
2017-08-24T02:26:52.353Z,0
2017-08-24T02:27:52.341Z,0
2017-08-24T02:28:52.749Z,0
2017-08-24T02:29:52.912Z,0
2017-08-24T02:30:52.956Z,0
2017-08-24T02:31:52.709Z,0
2017-08-24T02:32:52.694Z,0
2017-08-24T02:33:52.662Z,0
2017-08-24T02:34:52.982Z,0
2017-08-24T02:35:52.834Z,0
2017-08-24T02:36:52.202Z,0
2017-08-24T02:37:52.518Z,0
2017-08-24T02:38:52.812Z,0
2017-08-24T02:39:52.814Z,0
2017-08-24T02:40:52.489Z,0
2017-08-24T02:41:52.141Z,0
2017-08-24T02:42:52.851Z,0
2017-08-24T02:43:52.432Z,0
2017-08-24T02:44:52.781Z,0
2017-08-24T02:45:52.731Z,0
2017-08-24T02:46:52.380Z,0
2017-08-24T02:47:51.691Z,0
2017-08-24T02:48:52.459Z,0
2017-08-24T02:49:52.720Z,0
2017-08-24T02:50:52.029Z,0
2017-08-24T02:51:52.320Z,0
2017-08-24T02:52:52.009Z,0
2017-08-24T02:53:52.278Z,0
2017-08-24T02:54:51.659Z,0
2017-08-24T02:55:52.550Z,0
2017-08-24T02:56:52.241Z,0
2017-08-24T02:57:52.602Z,0
2017-08-24T02:58:52.211Z,0
2017-08-24T02:59:52.190Z,0
2017-08-24T03:00:52.192Z,0
2017-08-24T03:01:52.204Z,0
2017-08-24T03:02:52.222Z,0
2017-08-24T03:03:52.468Z,0
2017-08-24T03:04:52.431Z,0
2017-08-24T03:05:52.421Z,0
2017-08-24T03:06:52.101Z,0
2017-08-24T03:07:51.940Z,0
2017-08-24T03:08:52.411Z,0
2017-08-24T03:09:52.381Z,0
2017-08-24T03:10:52.352Z,0
2017-08-24T03:11:52.352Z,0
2017-08-24T03:12:51.732Z,0
2017-08-24T03:13:51.691Z,0
2017-08-24T03:14:52.311Z,0
2017-08-24T03:15:51.668Z,0
2017-08-24T03:16:51.685Z,0
2017-08-24T03:17:51.951Z,0
2017-08-24T03:18:51.685Z,0
2017-08-24T03:19:51.942Z,0
2017-08-24T03:20:51.910Z,0
2017-08-24T03:21:51.583Z,0
2017-08-24T03:22:52.201Z,0
2017-08-24T03:23:51.962Z,0
2017-08-24T03:24:51.900Z,0
2017-08-24T03:25:51.820Z,0
2017-08-24T03:26:51.629Z,0
2017-08-24T03:27:51.836Z,0
2017-08-24T03:28:51.633Z,0
2017-08-24T03:29:52.100Z,0
2017-08-24T03:30:51.852Z,0
2017-08-24T03:31:51.842Z,0
2017-08-24T03:32:52.070Z,0
2017-08-24T03:33:51.439Z,0
2017-08-24T03:34:51.740Z,0
2017-08-24T03:35:51.486Z,0
2017-08-24T03:36:51.684Z,0
2017-08-24T03:37:51.701Z,0
2017-08-24T03:38:51.662Z,0
2017-08-24T03:39:50.722Z,0
2017-08-24T03:40:51.339Z,0
2017-08-24T03:41:51.620Z,0
2017-08-24T03:42:51.622Z,0
2017-08-24T03:43:51.705Z,0
2017-08-24T03:44:51.601Z,0
2017-08-24T03:45:51.620Z,0
2017-08-24T03:46:51.859Z,0
2017-08-24T03:47:51.586Z,0
2017-08-24T03:48:51.572Z,0
2017-08-24T03:49:51.510Z,0
2017-08-24T03:50:51.540Z,0
2017-08-24T03:51:51.191Z,0
2017-08-24T03:52:51.756Z,0
2017-08-24T03:53:51.761Z,0
2017-08-24T03:54:51.119Z,0
2017-08-24T03:55:51.441Z,0
2017-08-24T03:56:51.420Z,0
2017-08-24T03:57:51.719Z,0
2017-08-24T03:58:51.720Z,0
2017-08-24T03:59:51.063Z,0
2017-08-24T04:00:51.500Z,0
2017-08-24T04:01:50.738Z,0
2017-08-24T04:02:50.715Z,0
2017-08-24T04:03:51.441Z,0
2017-08-24T04:04:50.698Z,0
2017-08-24T04:05:51.701Z,0
2017-08-24T04:06:51.266Z,0
2017-08-24T04:07:51.322Z,0
2017-08-24T04:08:51.299Z,0
2017-08-24T04:09:50.934Z,0
2017-08-24T04:10:51.238Z,0
2017-08-24T04:11:51.530Z,0
2017-08-24T04:12:51.511Z,0
2017-08-24T04:13:50.878Z,0
2017-08-24T04:14:50.843Z,0
2017-08-24T04:15:51.564Z,0
2017-08-24T04:16:50.842Z,0
2017-08-24T04:17:50.829Z,0
2017-08-24T04:18:50.798Z,0
2017-08-24T04:19:51.325Z,0
2017-08-24T04:20:50.774Z,0
2017-08-24T04:21:50.783Z,0
2017-08-24T04:22:51.050Z,0
2017-08-24T04:23:50.737Z,0
2017-08-24T04:24:50.711Z,0
2017-08-24T04:25:50.720Z,0
2017-08-24T04:26:51.326Z,0
2017-08-24T04:27:51.032Z,0
2017-08-24T04:28:50.740Z,0
2017-08-24T04:29:50.665Z,0
2017-08-24T04:30:50.960Z,0
2017-08-24T04:31:50.924Z,0
2017-08-24T04:32:50.596Z,0
2017-08-24T04:33:50.637Z,0
2017-08-24T04:34:50.588Z,0
2017-08-24T04:35:50.551Z,0
2017-08-24T04:36:50.852Z,0
2017-08-24T04:37:51.232Z,0
2017-08-24T04:38:50.836Z,0
2017-08-24T04:39:50.511Z,0
2017-08-24T04:40:50.811Z,0
2017-08-24T04:41:51.101Z,0
2017-08-24T04:42:50.779Z,0
2017-08-24T04:43:51.074Z,0
2017-08-24T04:44:51.063Z,0
2017-08-24T04:45:50.448Z,5
2017-08-24T04:46:50.743Z,5
2017-08-24T04:47:50.703Z,5
2017-08-24T04:48:50.387Z,5
2017-08-24T04:49:50.666Z,5
2017-08-24T04:50:50.352Z,5
2017-08-24T04:51:50.947Z,5
2017-08-24T04:52:50.949Z,5
2017-08-24T04:53:50.371Z,5
2017-08-24T04:54:50.642Z,5
2017-08-24T04:55:50.669Z,5
2017-08-24T04:56:50.566Z,5
2017-08-24T04:57:50.275Z,5
2017-08-24T04:58:50.253Z,5
2017-08-24T04:59:50.575Z,10
2017-08-24T05:00:50.228Z,10
2017-08-24T05:01:49.891Z,10
2017-08-24T05:02:49.912Z,10
2017-08-24T05:03:50.201Z,10
2017-08-24T05:04:50.180Z,10
2017-08-24T05:05:50.462Z,10
2017-08-24T05:06:49.828Z,10
2017-08-24T05:07:50.735Z,10
2017-08-24T05:08:50.116Z,10
2017-08-24T05:09:50.718Z,15
2017-08-24T05:10:50.664Z,15
2017-08-24T05:11:50.673Z,15
2017-08-24T05:12:50.671Z,15
2017-08-24T05:13:50.647Z,15
2017-08-24T05:14:50.345Z,20
2017-08-24T05:15:50.331Z,20
2017-08-24T05:16:50.611Z,20
2017-08-24T05:17:50.301Z,20
2017-08-24T05:18:50.593Z,20
2017-08-24T05:19:50.272Z,20
2017-08-24T05:20:50.252Z,20
2017-08-24T05:21:50.537Z,25
2017-08-24T05:22:50.243Z,25
2017-08-24T05:23:50.227Z,25
2017-08-24T05:24:50.512Z,25
2017-08-24T05:25:50.492Z,25
2017-08-24T05:26:50.502Z,25
2017-08-24T05:27:50.490Z,30
2017-08-24T05:28:50.465Z,30
2017-08-24T05:29:50.198Z,30
2017-08-24T05:30:50.249Z,30
2017-08-24T05:31:50.420Z,30
2017-08-24T05:32:50.089Z,30
2017-08-24T05:33:50.396Z,30
2017-08-24T05:34:50.353Z,30
2017-08-24T05:35:50.395Z,25
2017-08-24T05:36:49.722Z,25
2017-08-24T05:37:50.421Z,30
2017-08-24T05:38:50.098Z,30
2017-08-24T05:39:50.030Z,35
2017-08-24T05:40:49.971Z,35
2017-08-24T05:41:49.970Z,40
2017-08-24T05:42:50.264Z,40
2017-08-24T05:43:49.912Z,40
2017-08-24T05:44:49.928Z,40
2017-08-24T05:45:50.241Z,40
2017-08-24T05:46:49.272Z,40
2017-08-24T05:47:50.226Z,45
2017-08-24T05:48:49.553Z,45
2017-08-24T05:49:50.172Z,50
2017-08-24T05:50:49.846Z,50
2017-08-24T05:51:49.830Z,50
2017-08-24T05:52:49.812Z,50
2017-08-24T05:53:50.180Z,50
2017-08-24T05:54:50.121Z,45
2017-08-24T05:55:50.120Z,40
2017-08-24T05:56:49.733Z,40
2017-08-24T05:57:49.738Z,40
2017-08-24T05:58:50.092Z,35
2017-08-24T05:59:49.711Z,30
2017-08-24T06:00:49.710Z,25
2017-08-24T06:01:49.709Z,25
2017-08-24T06:02:50.074Z,25
2017-08-24T06:03:50.013Z,25
2017-08-24T06:04:49.336Z,25
2017-08-24T06:05:50.129Z,25
2017-08-24T06:06:49.928Z,20
2017-08-24T06:07:49.586Z,20
2017-08-24T06:08:49.881Z,20
2017-08-24T06:09:49.937Z,20
2017-08-24T06:10:49.260Z,20
2017-08-24T06:11:49.846Z,20
2017-08-24T06:12:49.521Z,20
2017-08-24T06:13:49.550Z,20
2017-08-24T06:14:49.497Z,20
2017-08-24T06:15:49.171Z,20
2017-08-24T06:16:49.768Z,20
2017-08-24T06:17:49.143Z,20
2017-08-24T06:18:49.441Z,25
2017-08-24T06:19:49.441Z,25
2017-08-24T06:20:49.416Z,35
2017-08-24T06:21:48.800Z,40
2017-08-24T06:22:49.073Z,40
2017-08-24T06:23:48.822Z,40
2017-08-24T06:24:49.058Z,40
2017-08-24T06:25:49.653Z,35
2017-08-24T06:26:49.337Z,35
2017-08-24T06:27:49.010Z,35
2017-08-24T06:28:49.288Z,40
2017-08-24T06:29:49.581Z,45
2017-08-24T06:30:49.270Z,50
2017-08-24T06:31:49.570Z,50
2017-08-24T06:32:49.545Z,45
2017-08-24T06:33:49.544Z,40
2017-08-24T06:34:49.254Z,40
2017-08-24T06:35:49.510Z,40
2017-08-24T06:36:48.280Z,50
2017-08-24T06:37:49.171Z,50
2017-08-24T06:38:49.179Z,45
2017-08-24T06:39:49.348Z,45
2017-08-24T06:40:49.141Z,40
2017-08-24T06:41:49.132Z,40
2017-08-24T06:42:49.413Z,40
2017-08-24T06:43:49.119Z,40
2017-08-24T06:44:48.454Z,40
2017-08-24T06:45:49.382Z,40
2017-08-24T06:46:49.346Z,40
2017-08-24T06:47:49.031Z,40
2017-08-24T06:48:49.029Z,40
2017-08-24T06:49:48.392Z,40
2017-08-24T06:50:49.016Z,40
2017-08-24T06:51:48.982Z,40
2017-08-24T06:52:48.943Z,40
2017-08-24T06:53:48.960Z,35
2017-08-24T06:54:49.255Z,40
2017-08-24T06:55:48.910Z,45
2017-08-24T06:56:49.040Z,45
2017-08-24T06:57:48.586Z,45
2017-08-24T06:58:48.892Z,45
2017-08-24T06:59:48.875Z,40
2017-08-24T07:00:48.648Z,45
2017-08-24T07:01:49.142Z,45
2017-08-24T07:02:49.186Z,35
2017-08-24T07:03:48.511Z,35
2017-08-24T07:04:49.231Z,30
2017-08-24T07:05:48.876Z,30
2017-08-24T07:06:49.104Z,35
2017-08-24T07:07:48.447Z,35
2017-08-24T07:08:48.731Z,35
2017-08-24T07:09:49.091Z,35
2017-08-24T07:10:48.411Z,30
2017-08-24T07:11:48.411Z,30
2017-08-24T07:12:49.000Z,30
2017-08-24T07:13:48.684Z,35
2017-08-24T07:14:49.240Z,40
2017-08-24T07:15:48.647Z,45
2017-08-24T07:16:48.712Z,45
2017-08-24T07:17:48.651Z,45
2017-08-24T07:18:48.287Z,45
2017-08-24T07:19:48.631Z,50
2017-08-24T07:20:48.249Z,55
2017-08-24T07:21:48.236Z,55
2017-08-24T07:22:48.886Z,55
2017-08-24T07:23:48.514Z,55
2017-08-24T07:24:48.848Z,50
2017-08-24T07:25:48.192Z,50
2017-08-24T07:26:48.220Z,60
2017-08-24T07:27:48.489Z,60
2017-08-24T07:28:48.821Z,50
2017-08-24T07:29:48.459Z,50
2017-08-24T07:30:48.467Z,55
2017-08-24T07:31:48.241Z,55
2017-08-24T07:32:48.399Z,55
2017-08-24T07:33:48.371Z,50
2017-08-24T07:34:48.927Z,40
2017-08-24T07:35:48.709Z,45
2017-08-24T07:36:48.057Z,50
2017-08-24T07:37:48.382Z,45
2017-08-24T07:38:48.014Z,45
2017-08-24T07:39:48.281Z,50
2017-08-24T07:40:48.281Z,60
2017-08-24T07:41:48.281Z,70
2017-08-24T07:42:48.247Z,75
2017-08-24T07:43:48.292Z,75
2017-08-24T07:44:47.931Z,75
2017-08-24T07:45:48.510Z,75
2017-08-24T07:46:47.909Z,70
2017-08-24T07:47:48.191Z,80
2017-08-24T07:48:48.503Z,80
2017-08-24T07:49:48.178Z,80
2017-08-24T07:50:48.140Z,90
2017-08-24T07:51:48.194Z,80
2017-08-24T07:52:48.425Z,85
2017-08-24T07:53:48.410Z,90
2017-08-24T07:54:48.087Z,80
2017-08-24T07:55:47.779Z,75
2017-08-24T07:56:47.771Z,65
2017-08-24T07:57:48.078Z,70
2017-08-24T07:58:48.146Z,75
2017-08-24T07:59:48.023Z,85
2017-08-24T08:00:48.014Z,80
2017-08-24T08:01:48.312Z,80
2017-08-24T08:02:47.982Z,75
2017-08-24T08:03:47.974Z,85
2017-08-24T08:04:47.962Z,90
2017-08-24T08:05:47.961Z,80
2017-08-24T08:06:48.221Z,100
2017-08-24T08:07:48.211Z,125
2017-08-24T08:08:47.610Z,240
2017-08-24T08:09:48.411Z,150
2017-08-24T08:10:48.182Z,135
2017-08-24T08:11:47.881Z,120
2017-08-24T08:12:47.853Z,120
2017-08-24T08:13:48.132Z,135
2017-08-24T08:14:48.132Z,160
2017-08-24T08:15:47.815Z,165
2017-08-24T08:16:48.145Z,105
2017-08-24T08:17:48.091Z,100
2017-08-24T08:18:47.773Z,80
2017-08-24T08:19:48.072Z,70
2017-08-24T08:20:48.065Z,70
2017-08-24T08:21:48.033Z,105
2017-08-24T08:22:48.025Z,120
2017-08-24T08:23:48.043Z,100
2017-08-24T08:24:48.033Z,100
2017-08-24T08:25:47.968Z,115
2017-08-24T08:26:47.974Z,125
2017-08-24T08:27:47.702Z,110
2017-08-24T08:28:47.639Z,95
2017-08-24T08:29:47.621Z,95
2017-08-24T08:30:47.611Z,290
2017-08-24T08:31:47.903Z,100
2017-08-24T08:32:47.590Z,105
2017-08-24T08:33:47.251Z,105
2017-08-24T08:34:48.027Z,110
2017-08-24T08:35:47.552Z,575
2017-08-24T08:36:47.227Z,475
2017-08-24T08:37:47.527Z,185
2017-08-24T08:38:47.911Z,900
2017-08-24T08:39:47.801Z,165
2017-08-24T08:40:47.486Z,160
2017-08-24T08:41:47.143Z,580
2017-08-24T08:42:47.462Z,440
2017-08-24T08:43:47.772Z,955
2017-08-24T08:44:48.094Z,905
2017-08-24T08:45:47.730Z,305
2017-08-24T08:46:47.435Z,290
2017-08-24T08:47:47.080Z,225
2017-08-24T08:48:46.850Z,185
2017-08-24T08:49:47.043Z,285
2017-08-24T08:50:47.040Z,490
2017-08-24T08:51:47.402Z,860
2017-08-24T08:52:47.660Z,405
2017-08-24T08:53:47.637Z,335
2017-08-24T08:54:47.628Z,315
2017-08-24T08:55:47.620Z,300
2017-08-24T08:56:47.601Z,425
2017-08-24T08:57:47.610Z,215
2017-08-24T08:58:47.600Z,290
2017-08-24T08:59:47.560Z,295
2017-08-24T09:00:47.789Z,280
2017-08-24T09:01:47.313Z,205
2017-08-24T09:02:47.511Z,195
2017-08-24T09:03:47.213Z,265
2017-08-24T09:04:46.877Z,225
2017-08-24T09:05:47.494Z,695
2017-08-24T09:06:47.494Z,205
2017-08-24T09:07:46.841Z,710
2017-08-24T09:08:46.850Z,455
2017-08-24T09:09:46.851Z,430
2017-08-24T09:10:47.451Z,310
2017-08-24T09:11:47.431Z,205
2017-08-24T09:12:47.113Z,165
2017-08-24T09:13:47.440Z,240
2017-08-24T09:14:47.403Z,210
2017-08-24T09:15:46.759Z,250
2017-08-24T09:16:46.450Z,365
2017-08-24T09:17:47.075Z,1035
2017-08-24T09:18:47.054Z,350
2017-08-24T09:19:47.052Z,910
2017-08-24T09:20:47.338Z,605
2017-08-24T09:21:47.308Z,860
2017-08-24T09:22:47.009Z,360
2017-08-24T09:23:46.989Z,955
2017-08-24T09:24:46.689Z,850
2017-08-24T09:25:46.991Z,625
2017-08-24T09:26:46.657Z,695
2017-08-24T09:27:47.280Z,730
2017-08-24T09:28:46.327Z,500
2017-08-24T09:29:46.733Z,450
2017-08-24T09:30:46.963Z,310
2017-08-24T09:31:46.931Z,705
2017-08-24T09:32:46.306Z,710
2017-08-24T09:33:46.928Z,410
2017-08-24T09:34:47.240Z,390
2017-08-24T09:35:47.221Z,445
2017-08-24T09:36:46.927Z,325
2017-08-24T09:37:46.883Z,340
2017-08-24T09:38:46.771Z,375
2017-08-24T09:39:47.437Z,315
2017-08-24T09:40:47.257Z,445
2017-08-24T09:41:46.849Z,445
2017-08-24T09:42:46.862Z,870
2017-08-24T09:43:47.190Z,565
2017-08-24T09:44:47.250Z,865
2017-08-24T09:45:47.221Z,805
2017-08-24T09:46:46.813Z,410
2017-08-24T09:47:46.480Z,895
2017-08-24T09:48:47.156Z,705
2017-08-24T09:49:46.840Z,865
2017-08-24T09:50:47.075Z,500
2017-08-24T09:51:46.772Z,365
2017-08-24T09:52:47.120Z,715
2017-08-24T09:53:47.049Z,490
2017-08-24T09:54:46.744Z,695
2017-08-24T09:55:47.044Z,880
2017-08-24T09:56:46.089Z,830
2017-08-24T09:57:46.737Z,940
2017-08-24T09:58:46.423Z,545
2017-08-24T09:59:46.781Z,605
2017-08-24T10:00:47.003Z,435
2017-08-24T10:01:46.701Z,855
2017-08-24T10:02:47.003Z,810
2017-08-24T10:03:46.993Z,885
2017-08-24T10:04:46.031Z,755
2017-08-24T10:05:46.670Z,855
2017-08-24T10:06:46.934Z,785
2017-08-24T10:07:46.018Z,570
2017-08-24T10:08:46.946Z,360
2017-08-24T10:09:46.928Z,245
2017-08-24T10:10:46.625Z,205
2017-08-24T10:11:46.979Z,185
2017-08-24T10:12:46.292Z,220
2017-08-24T10:13:46.351Z,435
2017-08-24T10:14:46.979Z,320
2017-08-24T10:15:46.620Z,325
2017-08-24T10:16:46.560Z,285
2017-08-24T10:17:46.922Z,305
2017-08-24T10:18:46.572Z,380
2017-08-24T10:19:46.223Z,305
2017-08-24T10:20:46.568Z,320
2017-08-24T10:21:46.843Z,200
2017-08-24T10:22:46.839Z,160
2017-08-24T10:23:46.194Z,135
2017-08-24T10:24:46.844Z,130
2017-08-24T10:25:45.850Z,135
2017-08-24T10:26:46.850Z,160
2017-08-24T10:27:46.466Z,215
2017-08-24T10:28:46.692Z,245
2017-08-24T10:29:47.103Z,220
2017-08-24T10:30:46.675Z,200
2017-08-24T10:31:46.723Z,205
2017-08-24T10:32:46.740Z,325
2017-08-24T10:33:46.710Z,270
2017-08-24T10:34:46.155Z,260
2017-08-24T10:35:46.071Z,235
2017-08-24T10:36:46.701Z,215
2017-08-24T10:37:46.683Z,225
2017-08-24T10:38:46.103Z,225
2017-08-24T10:39:46.349Z,235
2017-08-24T10:40:46.652Z,240
2017-08-24T10:41:46.030Z,250
2017-08-24T10:42:46.701Z,240
2017-08-24T10:43:46.007Z,240
2017-08-24T10:44:46.311Z,275
2017-08-24T10:45:46.607Z,260
2017-08-24T10:46:46.294Z,220
2017-08-24T10:47:46.392Z,175
2017-08-24T10:48:46.561Z,155
2017-08-24T10:49:46.251Z,145
2017-08-24T10:50:46.554Z,150
2017-08-24T10:51:45.939Z,180
2017-08-24T10:52:46.217Z,190
2017-08-24T10:53:45.899Z,185
2017-08-24T10:54:45.874Z,190
2017-08-24T10:55:46.192Z,205
2017-08-24T10:56:46.225Z,250
2017-08-24T10:57:46.209Z,285
2017-08-24T10:58:46.468Z,280
2017-08-24T10:59:46.132Z,250
2017-08-24T11:00:46.649Z,210
2017-08-24T11:01:46.117Z,210
2017-08-24T11:02:45.806Z,290
2017-08-24T11:03:45.785Z,300
2017-08-24T11:04:46.086Z,370
2017-08-24T11:05:45.768Z,395
2017-08-24T11:06:46.131Z,390
2017-08-24T11:07:46.381Z,385
2017-08-24T11:08:45.753Z,365
2017-08-24T11:09:46.049Z,275
2017-08-24T11:10:45.723Z,285
2017-08-24T11:11:45.760Z,295
2017-08-24T11:12:45.721Z,295
2017-08-24T11:13:46.057Z,320
2017-08-24T11:14:45.695Z,400
2017-08-24T11:15:45.731Z,395
2017-08-24T11:16:45.658Z,315
2017-08-24T11:17:45.984Z,265
2017-08-24T11:18:45.648Z,245
2017-08-24T11:19:46.387Z,230
2017-08-24T11:20:45.939Z,230
2017-08-24T11:21:45.668Z,245
2017-08-24T11:22:45.612Z,245
2017-08-24T11:23:45.634Z,230
2017-08-24T11:24:45.590Z,245
2017-08-24T11:25:45.893Z,315
2017-08-24T11:26:45.557Z,270
2017-08-24T11:27:45.551Z,265
2017-08-24T11:28:45.862Z,265
2017-08-24T11:29:45.851Z,275
2017-08-24T11:30:45.535Z,385
2017-08-24T11:31:45.813Z,345
2017-08-24T11:32:45.805Z,310
2017-08-24T11:33:45.798Z,325
2017-08-24T11:34:45.808Z,325
2017-08-24T11:35:45.786Z,325
2017-08-24T11:36:45.786Z,345
2017-08-24T11:37:45.782Z,330
2017-08-24T11:38:46.043Z,315
2017-08-24T11:39:45.743Z,325
2017-08-24T11:40:46.035Z,350
2017-08-24T11:41:45.729Z,360
2017-08-24T11:42:46.024Z,355
2017-08-24T11:43:45.697Z,285
2017-08-24T11:44:45.808Z,280
2017-08-24T11:45:45.944Z,305
2017-08-24T11:46:45.766Z,295
2017-08-24T11:47:45.659Z,290
2017-08-24T11:48:45.758Z,305
2017-08-24T11:49:45.950Z,310
2017-08-24T11:50:45.935Z,310
2017-08-24T11:51:45.637Z,300
2017-08-24T11:52:45.001Z,295
2017-08-24T11:53:45.602Z,295
2017-08-24T11:54:45.590Z,305
2017-08-24T11:55:45.616Z,320
2017-08-24T11:56:45.585Z,330
2017-08-24T11:57:45.880Z,330
2017-08-24T11:58:45.966Z,310
2017-08-24T11:59:45.575Z,325
2017-08-24T12:00:45.577Z,305
2017-08-24T12:01:45.864Z,260
2017-08-24T12:02:45.608Z,310
2017-08-24T12:03:45.856Z,305
2017-08-24T12:04:45.532Z,230
2017-08-24T12:05:45.589Z,225
2017-08-24T12:06:45.864Z,215
2017-08-24T12:07:45.857Z,235
2017-08-24T12:08:45.850Z,265
2017-08-24T12:09:45.832Z,255
2017-08-24T12:10:45.762Z,255
2017-08-24T12:11:45.763Z,320
2017-08-24T12:12:45.749Z,305
2017-08-24T12:13:45.736Z,295
2017-08-24T12:14:45.741Z,225
2017-08-24T12:15:45.716Z,195
2017-08-24T12:16:45.735Z,190
2017-08-24T12:17:45.710Z,200
2017-08-24T12:18:45.718Z,215
2017-08-24T12:19:45.695Z,225
2017-08-24T12:20:45.711Z,230
2017-08-24T12:21:45.672Z,260
2017-08-24T12:22:44.422Z,205
2017-08-24T12:23:45.685Z,245
2017-08-24T12:24:45.657Z,200
2017-08-24T12:25:45.653Z,230
2017-08-24T12:26:45.319Z,160
2017-08-24T12:27:45.632Z,150
2017-08-24T12:28:45.612Z,165
2017-08-24T12:29:45.642Z,185
2017-08-24T12:30:45.595Z,275
2017-08-24T12:31:45.603Z,240
2017-08-24T12:32:45.574Z,250
2017-08-24T12:33:45.299Z,300
2017-08-24T12:34:45.586Z,235
2017-08-24T12:35:45.548Z,295
2017-08-24T12:36:45.739Z,300
2017-08-24T12:37:45.522Z,305
2017-08-24T12:38:45.534Z,305
2017-08-24T12:39:45.517Z,295
2017-08-24T12:40:44.862Z,295
2017-08-24T12:41:45.637Z,255
2017-08-24T12:42:44.872Z,275
2017-08-24T12:43:45.488Z,250
2017-08-24T12:44:45.248Z,275
2017-08-24T12:45:45.501Z,230
2017-08-24T12:46:45.606Z,285
2017-08-24T12:47:45.440Z,290
2017-08-24T12:48:45.494Z,285
2017-08-24T12:49:45.160Z,280
2017-08-24T12:50:45.423Z,280
2017-08-24T12:51:45.415Z,275
2017-08-24T12:52:45.142Z,275
2017-08-24T12:53:44.739Z,230
2017-08-24T12:54:45.046Z,200
2017-08-24T12:55:45.101Z,215
2017-08-24T12:56:45.073Z,270
2017-08-24T12:57:45.349Z,270
2017-08-24T12:58:45.339Z,270
2017-08-24T12:59:45.209Z,270
2017-08-24T13:00:45.072Z,270
2017-08-24T13:01:45.325Z,275
2017-08-24T13:02:44.128Z,275
2017-08-24T13:03:44.969Z,275
2017-08-24T13:04:44.991Z,270
2017-08-24T13:05:44.690Z,265
2017-08-24T13:06:44.957Z,270
2017-08-24T13:07:44.951Z,270
2017-08-24T13:08:44.917Z,275
2017-08-24T13:09:45.423Z,275
2017-08-24T13:10:45.235Z,275
2017-08-24T13:11:44.890Z,270
2017-08-24T13:12:45.218Z,270
2017-08-24T13:13:45.198Z,275
2017-08-24T13:14:45.191Z,265
2017-08-24T13:15:45.199Z,270
2017-08-24T13:16:45.185Z,265
2017-08-24T13:17:45.192Z,260
2017-08-24T13:18:44.831Z,230
2017-08-24T13:19:44.528Z,260
2017-08-24T13:20:45.144Z,245
2017-08-24T13:21:45.124Z,245
2017-08-24T13:22:44.841Z,250
2017-08-24T13:23:45.138Z,260
2017-08-24T13:24:44.477Z,190
2017-08-24T13:25:45.083Z,195
2017-08-24T13:26:44.781Z,250
2017-08-24T13:27:44.469Z,240
2017-08-24T13:28:45.316Z,245
2017-08-24T13:30:14.249Z,195
2017-08-24T13:30:45.084Z,205
2017-08-24T13:31:44.452Z,175
2017-08-24T13:32:45.072Z,175
2017-08-24T13:33:44.721Z,220
2017-08-24T13:34:45.331Z,240
2017-08-24T13:35:45.042Z,240
2017-08-24T13:36:44.390Z,230
2017-08-24T13:37:44.375Z,235
2017-08-24T13:38:45.114Z,225
2017-08-24T13:39:45.031Z,220
2017-08-24T13:40:44.976Z,200
2017-08-24T13:41:44.658Z,230
2017-08-24T13:42:44.638Z,195
2017-08-24T13:43:44.266Z,220
2017-08-24T13:44:44.632Z,160
2017-08-24T13:45:44.940Z,160
2017-08-24T13:46:44.379Z,165
2017-08-24T13:47:44.597Z,210
2017-08-24T13:48:44.673Z,165
2017-08-24T13:49:44.882Z,185
2017-08-24T13:50:44.269Z,205
2017-08-24T13:51:44.571Z,160
2017-08-24T13:52:44.558Z,205
2017-08-24T13:53:44.289Z,215
2017-08-24T13:54:44.870Z,225
2017-08-24T13:55:44.241Z,230
2017-08-24T13:56:44.836Z,230
2017-08-24T13:57:44.860Z,210
2017-08-24T13:58:44.827Z,210
2017-08-24T13:59:44.831Z,185
2017-08-24T14:00:44.807Z,185
2017-08-24T14:01:44.480Z,175
2017-08-24T14:02:44.480Z,180
2017-08-24T14:03:44.199Z,175
2017-08-24T14:04:44.599Z,185
2017-08-24T14:05:44.836Z,180
2017-08-24T14:06:44.129Z,185
2017-08-24T14:07:44.521Z,195
2017-08-24T14:08:43.801Z,155
2017-08-24T14:09:44.767Z,190
2017-08-24T14:10:44.097Z,200
2017-08-24T14:11:44.077Z,195
2017-08-24T14:12:44.390Z,150
2017-08-24T14:13:44.709Z,140